sensor_id;sensor_type;location;lat;lon;timestamp;P1;durP1;ratioP1;P2;durP2;ratioP2
4096;SDS011;2062;50.694;7.246;2023-04-24T00:01:20;2.35;;;0.50;;
4096;SDS011;2062;50.694;7.246;2023-04-24T00:03:47;2.17;;;0.40;;
4096;SDS011;2062;50.694;7.246;2023-04-24T00:06:14;2.53;;;0.40;;
4096;SDS011;2062;50.694;7.246;2023-04-24T00:08:42;3.38;;;0.50;;
4096;SDS011;2062;50.694;7.246;2023-04-24T00:11:10;3.50;;;0.40;;
4096;SDS011;2062;50.694;7.246;2023-04-24T00:13:37;3.50;;;0.50;;
4096;SDS011;2062;50.694;7.246;2023-04-24T00:16:04;2.03;;;0.40;;
4096;SDS011;2062;50.694;7.246;2023-04-24T00:18:32;1.90;;;0.30;;
4096;SDS011;2062;50.694;7.246;2023-04-24T00:20:58;3.72;;;0.40;;
4096;SDS011;2062;50.694;7.246;2023-04-24T00:23:26;2.47;;;0.40;;
4096;SDS011;2062;50.694;7.246;2023-04-24T00:25:52;2.25;;;0.47;;
4096;SDS011;2062;50.694;7.246;2023-04-24T00:28:20;2.83;;;0.43;;
4096;SDS011;2062;50.694;7.246;2023-04-24T00:30:47;2.10;;;0.40;;
4096;SDS011;2062;50.694;7.246;2023-04-24T00:33:14;2.13;;;0.43;;
4096;SDS011;2062;50.694;7.246;2023-04-24T00:35:41;2.42;;;0.38;;
4096;SDS011;2062;50.694;7.246;2023-04-24T00:38:08;3.33;;;0.40;;
4096;SDS011;2062;50.694;7.246;2023-04-24T00:40:35;1.87;;;0.40;;
4096;SDS011;2062;50.694;7.246;2023-04-24T00:43:01;1.63;;;0.30;;
4096;SDS011;2062;50.694;7.246;2023-04-24T00:45:30;1.77;;;0.30;;
4096;SDS011;2062;50.694;7.246;2023-04-24T00:47:57;2.05;;;0.40;;
4096;SDS011;2062;50.694;7.246;2023-04-24T00:50:24;2.13;;;0.40;;
4096;SDS011;2062;50.694;7.246;2023-04-24T00:52:51;1.60;;;0.30;;
4096;SDS011;2062;50.694;7.246;2023-04-24T00:55:18;3.28;;;0.35;;
4096;SDS011;2062;50.694;7.246;2023-04-24T00:57:45;2.10;;;0.50;;
4096;SDS011;2062;50.694;7.246;2023-04-24T01:00:13;2.20;;;0.50;;
4096;SDS011;2062;50.694;7.246;2023-04-24T01:02:44;2.00;;;0.40;;
4096;SDS011;2062;50.694;7.246;2023-04-24T01:05:11;2.30;;;0.40;;
4096;SDS011;2062;50.694;7.246;2023-04-24T01:07:41;1.77;;;0.28;;
4096;SDS011;2062;50.694;7.246;2023-04-24T01:10:10;2.72;;;0.60;;
4096;SDS011;2062;50.694;7.246;2023-04-24T01:12:38;2.00;;;0.35;;
4096;SDS011;2062;50.694;7.246;2023-04-24T01:15:06;3.92;;;0.55;;
4096;SDS011;2062;50.694;7.246;2023-04-24T01:17:34;1.80;;;0.30;;
4096;SDS011;2062;50.694;7.246;2023-04-24T01:20:02;2.58;;;0.50;;
4096;SDS011;2062;50.694;7.246;2023-04-24T01:22:32;2.65;;;0.50;;
4096;SDS011;2062;50.694;7.246;2023-04-24T01:24:59;2.08;;;0.40;;
4096;SDS011;2062;50.694;7.246;2023-04-24T01:27:27;1.75;;;0.40;;
4096;SDS011;2062;50.694;7.246;2023-04-24T01:29:54;2.27;;;0.40;;
4096;SDS011;2062;50.694;7.246;2023-04-24T01:32:21;2.80;;;0.70;;
4096;SDS011;2062;50.694;7.246;2023-04-24T01:34:48;2.72;;;0.50;;
4096;SDS011;2062;50.694;7.246;2023-04-24T01:37:16;3.10;;;0.68;;
4096;SDS011;2062;50.694;7.246;2023-04-24T01:39:44;1.92;;;0.40;;
4096;SDS011;2062;50.694;7.246;2023-04-24T01:42:11;2.73;;;0.50;;
4096;SDS011;2062;50.694;7.246;2023-04-24T01:44:40;2.55;;;0.60;;
4096;SDS011;2062;50.694;7.246;2023-04-24T01:47:07;3.08;;;0.60;;
4096;SDS011;2062;50.694;7.246;2023-04-24T01:49:34;4.28;;;1.00;;
4096;SDS011;2062;50.694;7.246;2023-04-24T01:52:01;4.22;;;1.00;;
4096;SDS011;2062;50.694;7.246;2023-04-24T01:54:28;4.17;;;1.23;;
4096;SDS011;2062;50.694;7.246;2023-04-24T01:56:56;5.07;;;1.10;;
4096;SDS011;2062;50.694;7.246;2023-04-24T01:59:23;4.05;;;1.23;;
4096;SDS011;2062;50.694;7.246;2023-04-24T02:01:52;3.55;;;1.20;;
4096;SDS011;2062;50.694;7.246;2023-04-24T02:04:19;3.60;;;1.25;;
4096;SDS011;2062;50.694;7.246;2023-04-24T02:06:46;4.00;;;1.10;;
4096;SDS011;2062;50.694;7.246;2023-04-24T02:09:13;4.03;;;1.15;;
4096;SDS011;2062;50.694;7.246;2023-04-24T02:11:40;3.90;;;1.30;;
4096;SDS011;2062;50.694;7.246;2023-04-24T02:14:08;4.63;;;1.60;;
4096;SDS011;2062;50.694;7.246;2023-04-24T02:16:35;4.43;;;1.63;;
4096;SDS011;2062;50.694;7.246;2023-04-24T02:19:02;5.17;;;1.67;;
4096;SDS011;2062;50.694;7.246;2023-04-24T02:21:29;4.60;;;1.70;;
4096;SDS011;2062;50.694;7.246;2023-04-24T02:23:56;4.45;;;1.67;;
4096;SDS011;2062;50.694;7.246;2023-04-24T02:26:23;4.55;;;1.50;;
4096;SDS011;2062;50.694;7.246;2023-04-24T02:28:51;4.50;;;1.65;;
4096;SDS011;2062;50.694;7.246;2023-04-24T02:31:19;4.43;;;1.50;;
4096;SDS011;2062;50.694;7.246;2023-04-24T02:33:46;3.58;;;1.25;;
4096;SDS011;2062;50.694;7.246;2023-04-24T02:36:13;5.00;;;1.40;;
4096;SDS011;2062;50.694;7.246;2023-04-24T02:38:40;4.40;;;1.70;;
4096;SDS011;2062;50.694;7.246;2023-04-24T02:41:07;4.75;;;1.52;;
4096;SDS011;2062;50.694;7.246;2023-04-24T02:43:33;4.60;;;1.43;;
4096;SDS011;2062;50.694;7.246;2023-04-24T02:46:00;4.65;;;1.63;;
4096;SDS011;2062;50.694;7.246;2023-04-24T02:48:29;5.53;;;2.10;;
4096;SDS011;2062;50.694;7.246;2023-04-24T02:50:56;5.05;;;1.75;;
4096;SDS011;2062;50.694;7.246;2023-04-24T02:53:23;5.13;;;1.95;;
4096;SDS011;2062;50.694;7.246;2023-04-24T02:55:50;5.40;;;2.07;;
4096;SDS011;2062;50.694;7.246;2023-04-24T02:58:17;4.78;;;1.90;;
4096;SDS011;2062;50.694;7.246;2023-04-24T03:00:44;5.60;;;2.15;;
4096;SDS011;2062;50.694;7.246;2023-04-24T03:03:11;5.95;;;2.38;;
4096;SDS011;2062;50.694;7.246;2023-04-24T03:05:39;5.75;;;2.45;;
4096;SDS011;2062;50.694;7.246;2023-04-24T03:08:06;7.60;;;2.40;;
4096;SDS011;2062;50.694;7.246;2023-04-24T03:10:33;5.32;;;2.10;;
4096;SDS011;2062;50.694;7.246;2023-04-24T03:13:00;6.43;;;2.70;;
4096;SDS011;2062;50.694;7.246;2023-04-24T03:15:26;6.90;;;2.47;;
4096;SDS011;2062;50.694;7.246;2023-04-24T03:17:54;5.82;;;2.47;;
4096;SDS011;2062;50.694;7.246;2023-04-24T03:20:21;6.80;;;2.60;;
4096;SDS011;2062;50.694;7.246;2023-04-24T03:22:49;6.40;;;2.67;;
4096;SDS011;2062;50.694;7.246;2023-04-24T03:25:16;6.03;;;2.58;;
4096;SDS011;2062;50.694;7.246;2023-04-24T03:27:43;6.50;;;2.80;;
4096;SDS011;2062;50.694;7.246;2023-04-24T03:30:10;5.82;;;2.42;;
4096;SDS011;2062;50.694;7.246;2023-04-24T03:32:37;6.33;;;2.60;;
4096;SDS011;2062;50.694;7.246;2023-04-24T03:35:04;6.00;;;2.58;;
4096;SDS011;2062;50.694;7.246;2023-04-24T03:37:32;6.32;;;2.50;;
4096;SDS011;2062;50.694;7.246;2023-04-24T03:40:00;6.22;;;2.17;;
4096;SDS011;2062;50.694;7.246;2023-04-24T03:42:27;6.80;;;3.00;;
4096;SDS011;2062;50.694;7.246;2023-04-24T03:44:54;6.50;;;2.63;;
4096;SDS011;2062;50.694;7.246;2023-04-24T03:47:21;7.20;;;2.70;;
4096;SDS011;2062;50.694;7.246;2023-04-24T03:49:47;6.57;;;2.50;;
4096;SDS011;2062;50.694;7.246;2023-04-24T03:52:15;6.95;;;2.90;;
4096;SDS011;2062;50.694;7.246;2023-04-24T03:54:41;7.78;;;2.80;;
4096;SDS011;2062;50.694;7.246;2023-04-24T03:57:10;5.87;;;2.40;;
4096;SDS011;2062;50.694;7.246;2023-04-24T03:59:36;6.35;;;2.78;;
4096;SDS011;2062;50.694;7.246;2023-04-24T04:02:03;6.90;;;3.03;;
4096;SDS011;2062;50.694;7.246;2023-04-24T04:04:30;6.78;;;2.72;;
4096;SDS011;2062;50.694;7.246;2023-04-24T04:06:57;7.70;;;2.83;;
4096;SDS011;2062;50.694;7.246;2023-04-24T04:09:26;7.10;;;2.83;;
4096;SDS011;2062;50.694;7.246;2023-04-24T04:11:53;9.00;;;3.00;;
4096;SDS011;2062;50.694;7.246;2023-04-24T04:14:21;6.88;;;2.70;;
4096;SDS011;2062;50.694;7.246;2023-04-24T04:16:48;8.95;;;2.70;;
4096;SDS011;2062;50.694;7.246;2023-04-24T04:19:16;6.68;;;2.88;;
4096;SDS011;2062;50.694;7.246;2023-04-24T04:21:42;7.90;;;2.97;;
4096;SDS011;2062;50.694;7.246;2023-04-24T04:24:10;6.93;;;2.80;;
4096;SDS011;2062;50.694;7.246;2023-04-24T04:26:38;8.38;;;3.13;;
4096;SDS011;2062;50.694;7.246;2023-04-24T04:29:05;6.97;;;3.13;;
4096;SDS011;2062;50.694;7.246;2023-04-24T04:31:34;7.60;;;3.28;;
4096;SDS011;2062;50.694;7.246;2023-04-24T04:34:01;6.60;;;3.30;;
4096;SDS011;2062;50.694;7.246;2023-04-24T04:36:28;8.00;;;3.08;;
4096;SDS011;2062;50.694;7.246;2023-04-24T04:38:56;7.15;;;3.17;;
4096;SDS011;2062;50.694;7.246;2023-04-24T04:41:24;7.60;;;3.40;;
4096;SDS011;2062;50.694;7.246;2023-04-24T04:43:51;7.38;;;2.90;;
4096;SDS011;2062;50.694;7.246;2023-04-24T04:46:18;8.13;;;3.03;;
4096;SDS011;2062;50.694;7.246;2023-04-24T04:48:46;7.07;;;3.00;;
4096;SDS011;2062;50.694;7.246;2023-04-24T04:51:12;7.40;;;3.22;;
4096;SDS011;2062;50.694;7.246;2023-04-24T04:53:39;7.75;;;3.03;;
4096;SDS011;2062;50.694;7.246;2023-04-24T04:56:06;9.00;;;3.40;;
4096;SDS011;2062;50.694;7.246;2023-04-24T04:58:33;7.00;;;3.03;;
4096;SDS011;2062;50.694;7.246;2023-04-24T05:01:00;6.30;;;2.95;;
4096;SDS011;2062;50.694;7.246;2023-04-24T05:03:27;7.45;;;3.05;;
4096;SDS011;2062;50.694;7.246;2023-04-24T05:05:55;6.47;;;2.63;;
4096;SDS011;2062;50.694;7.246;2023-04-24T05:08:23;7.38;;;2.85;;
4096;SDS011;2062;50.694;7.246;2023-04-24T05:10:50;6.93;;;2.90;;
4096;SDS011;2062;50.694;7.246;2023-04-24T05:13:17;6.22;;;2.80;;
4096;SDS011;2062;50.694;7.246;2023-04-24T05:15:43;10.07;;;3.45;;
4096;SDS011;2062;50.694;7.246;2023-04-24T05:18:10;9.63;;;3.03;;
4096;SDS011;2062;50.694;7.246;2023-04-24T05:20:37;8.43;;;3.50;;
4096;SDS011;2062;50.694;7.246;2023-04-24T05:23:05;8.17;;;3.20;;
4096;SDS011;2062;50.694;7.246;2023-04-24T05:25:32;7.35;;;3.08;;
4096;SDS011;2062;50.694;7.246;2023-04-24T05:28:00;7.60;;;3.20;;
4096;SDS011;2062;50.694;7.246;2023-04-24T05:30:27;7.85;;;3.78;;
4096;SDS011;2062;50.694;7.246;2023-04-24T05:32:54;8.18;;;3.28;;
4096;SDS011;2062;50.694;7.246;2023-04-24T05:35:21;7.97;;;3.37;;
4096;SDS011;2062;50.694;7.246;2023-04-24T05:37:47;8.32;;;3.08;;
4096;SDS011;2062;50.694;7.246;2023-04-24T05:40:15;8.18;;;3.33;;
4096;SDS011;2062;50.694;7.246;2023-04-24T05:42:42;8.10;;;3.10;;
4096;SDS011;2062;50.694;7.246;2023-04-24T05:45:09;7.05;;;3.28;;
4096;SDS011;2062;50.694;7.246;2023-04-24T05:47:41;6.70;;;3.03;;
4096;SDS011;2062;50.694;7.246;2023-04-24T05:50:08;6.75;;;3.28;;
4096;SDS011;2062;50.694;7.246;2023-04-24T05:52:36;7.35;;;3.17;;
4096;SDS011;2062;50.694;7.246;2023-04-24T05:55:02;7.03;;;3.08;;
4096;SDS011;2062;50.694;7.246;2023-04-24T05:57:31;7.75;;;3.25;;
4096;SDS011;2062;50.694;7.246;2023-04-24T05:59:58;7.87;;;3.10;;
4096;SDS011;2062;50.694;7.246;2023-04-24T06:02:25;8.52;;;3.13;;
4096;SDS011;2062;50.694;7.246;2023-04-24T06:04:52;6.53;;;3.05;;
4096;SDS011;2062;50.694;7.246;2023-04-24T06:07:20;7.63;;;3.40;;
4096;SDS011;2062;50.694;7.246;2023-04-24T06:09:47;8.65;;;3.67;;
4096;SDS011;2062;50.694;7.246;2023-04-24T06:12:14;6.47;;;3.07;;
4096;SDS011;2062;50.694;7.246;2023-04-24T06:14:42;8.60;;;3.40;;
4096;SDS011;2062;50.694;7.246;2023-04-24T06:17:09;7.75;;;3.13;;
4096;SDS011;2062;50.694;7.246;2023-04-24T06:19:35;7.63;;;3.38;;
4096;SDS011;2062;50.694;7.246;2023-04-24T06:22:02;6.63;;;3.15;;
4096;SDS011;2062;50.694;7.246;2023-04-24T06:24:29;6.73;;;3.30;;
4096;SDS011;2062;50.694;7.246;2023-04-24T06:26:56;8.35;;;3.65;;
4096;SDS011;2062;50.694;7.246;2023-04-24T06:29:24;9.52;;;3.50;;
4096;SDS011;2062;50.694;7.246;2023-04-24T06:31:52;7.38;;;3.30;;
4096;SDS011;2062;50.694;7.246;2023-04-24T06:34:19;8.30;;;3.10;;
4096;SDS011;2062;50.694;7.246;2023-04-24T06:36:46;7.50;;;3.40;;
4096;SDS011;2062;50.694;7.246;2023-04-24T06:39:13;8.35;;;3.58;;
4096;SDS011;2062;50.694;7.246;2023-04-24T06:41:40;7.88;;;3.30;;
4096;SDS011;2062;50.694;7.246;2023-04-24T06:44:07;7.97;;;3.42;;
4096;SDS011;2062;50.694;7.246;2023-04-24T06:46:34;7.63;;;3.50;;
4096;SDS011;2062;50.694;7.246;2023-04-24T06:49:03;10.40;;;3.67;;
4096;SDS011;2062;50.694;7.246;2023-04-24T06:51:29;7.10;;;3.20;;
4096;SDS011;2062;50.694;7.246;2023-04-24T06:53:58;8.82;;;4.20;;
4096;SDS011;2062;50.694;7.246;2023-04-24T06:56:25;7.30;;;3.55;;
4096;SDS011;2062;50.694;7.246;2023-04-24T06:58:53;9.05;;;3.90;;
4096;SDS011;2062;50.694;7.246;2023-04-24T07:01:20;9.07;;;3.53;;
4096;SDS011;2062;50.694;7.246;2023-04-24T07:03:47;7.35;;;3.63;;
4096;SDS011;2062;50.694;7.246;2023-04-24T07:06:15;8.32;;;3.70;;
4096;SDS011;2062;50.694;7.246;2023-04-24T07:08:43;11.02;;;3.67;;
4096;SDS011;2062;50.694;7.246;2023-04-24T07:11:11;8.48;;;3.47;;
4096;SDS011;2062;50.694;7.246;2023-04-24T07:13:38;7.63;;;3.43;;
4096;SDS011;2062;50.694;7.246;2023-04-24T07:16:06;8.70;;;3.50;;
4096;SDS011;2062;50.694;7.246;2023-04-24T07:18:33;7.90;;;3.47;;
4096;SDS011;2062;50.694;7.246;2023-04-24T07:21:01;7.07;;;3.22;;
4096;SDS011;2062;50.694;7.246;2023-04-24T07:23:30;6.80;;;3.05;;
4096;SDS011;2062;50.694;7.246;2023-04-24T07:25:57;7.20;;;3.60;;
4096;SDS011;2062;50.694;7.246;2023-04-24T07:28:23;7.70;;;3.58;;
4096;SDS011;2062;50.694;7.246;2023-04-24T07:30:50;8.95;;;3.38;;
4096;SDS011;2062;50.694;7.246;2023-04-24T07:33:19;7.57;;;3.25;;
4096;SDS011;2062;50.694;7.246;2023-04-24T07:35:45;9.23;;;3.28;;
4096;SDS011;2062;50.694;7.246;2023-04-24T07:38:12;6.43;;;3.17;;
4096;SDS011;2062;50.694;7.246;2023-04-24T07:40:40;7.68;;;2.78;;
4096;SDS011;2062;50.694;7.246;2023-04-24T07:43:07;6.20;;;2.75;;
4096;SDS011;2062;50.694;7.246;2023-04-24T07:45:34;5.68;;;2.63;;
4096;SDS011;2062;50.694;7.246;2023-04-24T07:48:02;5.90;;;2.85;;
4096;SDS011;2062;50.694;7.246;2023-04-24T07:50:29;7.07;;;2.47;;
4096;SDS011;2062;50.694;7.246;2023-04-24T07:52:56;5.55;;;2.45;;
4096;SDS011;2062;50.694;7.246;2023-04-24T07:55:23;7.75;;;2.28;;
4096;SDS011;2062;50.694;7.246;2023-04-24T07:57:51;5.50;;;2.30;;
4096;SDS011;2062;50.694;7.246;2023-04-24T08:00:18;6.03;;;1.95;;
4096;SDS011;2062;50.694;7.246;2023-04-24T08:02:44;4.80;;;2.00;;
4096;SDS011;2062;50.694;7.246;2023-04-24T08:05:11;4.78;;;1.60;;
4096;SDS011;2062;50.694;7.246;2023-04-24T08:07:38;4.25;;;1.50;;
4096;SDS011;2062;50.694;7.246;2023-04-24T08:10:09;4.95;;;1.60;;
4096;SDS011;2062;50.694;7.246;2023-04-24T08:12:36;4.57;;;1.50;;
4096;SDS011;2062;50.694;7.246;2023-04-24T08:15:05;3.93;;;1.37;;
4096;SDS011;2062;50.694;7.246;2023-04-24T08:17:33;4.35;;;1.30;;
4096;SDS011;2062;50.694;7.246;2023-04-24T08:20:00;3.58;;;1.00;;
4096;SDS011;2062;50.694;7.246;2023-04-24T08:22:27;3.20;;;0.90;;
4096;SDS011;2062;50.694;7.246;2023-04-24T08:24:54;3.10;;;0.90;;
4096;SDS011;2062;50.694;7.246;2023-04-24T08:27:22;3.57;;;0.87;;
4096;SDS011;2062;50.694;7.246;2023-04-24T08:29:49;4.15;;;0.88;;
4096;SDS011;2062;50.694;7.246;2023-04-24T08:32:17;2.85;;;0.65;;
4096;SDS011;2062;50.694;7.246;2023-04-24T08:34:44;2.72;;;0.65;;
4096;SDS011;2062;50.694;7.246;2023-04-24T08:37:10;3.10;;;0.80;;
4096;SDS011;2062;50.694;7.246;2023-04-24T08:39:37;3.67;;;0.70;;
4096;SDS011;2062;50.694;7.246;2023-04-24T08:42:04;2.92;;;0.60;;
4096;SDS011;2062;50.694;7.246;2023-04-24T08:44:33;3.10;;;0.70;;
4096;SDS011;2062;50.694;7.246;2023-04-24T08:47:01;2.95;;;0.65;;
4096;SDS011;2062;50.694;7.246;2023-04-24T08:49:29;2.95;;;0.70;;
4096;SDS011;2062;50.694;7.246;2023-04-24T08:51:57;3.87;;;0.80;;
4096;SDS011;2062;50.694;7.246;2023-04-24T08:54:24;4.68;;;0.95;;
4096;SDS011;2062;50.694;7.246;2023-04-24T08:56:51;3.25;;;0.82;;
4096;SDS011;2062;50.694;7.246;2023-04-24T08:59:20;4.70;;;1.00;;
4096;SDS011;2062;50.694;7.246;2023-04-24T09:01:48;4.13;;;1.00;;
4096;SDS011;2062;50.694;7.246;2023-04-24T09:04:17;3.63;;;1.10;;
4096;SDS011;2062;50.694;7.246;2023-04-24T09:06:48;5.25;;;1.20;;
4096;SDS011;2062;50.694;7.246;2023-04-24T09:09:15;3.95;;;1.30;;
4096;SDS011;2062;50.694;7.246;2023-04-24T09:11:43;4.07;;;1.20;;
4096;SDS011;2062;50.694;7.246;2023-04-24T09:14:11;4.00;;;1.40;;
4096;SDS011;2062;50.694;7.246;2023-04-24T09:16:39;5.60;;;1.40;;
4096;SDS011;2062;50.694;7.246;2023-04-24T09:19:06;4.57;;;1.52;;
4096;SDS011;2062;50.694;7.246;2023-04-24T09:21:33;4.45;;;1.42;;
4096;SDS011;2062;50.694;7.246;2023-04-24T09:24:03;7.18;;;1.50;;
4096;SDS011;2062;50.694;7.246;2023-04-24T09:26:34;4.30;;;1.50;;
4096;SDS011;2062;50.694;7.246;2023-04-24T09:29:02;5.87;;;1.43;;
4096;SDS011;2062;50.694;7.246;2023-04-24T09:31:30;4.90;;;1.52;;
4096;SDS011;2062;50.694;7.246;2023-04-24T09:33:58;4.95;;;1.73;;
4096;SDS011;2062;50.694;7.246;2023-04-24T09:36:28;4.95;;;1.20;;
4096;SDS011;2062;50.694;7.246;2023-04-24T09:38:58;5.28;;;1.48;;
4096;SDS011;2062;50.694;7.246;2023-04-24T09:41:27;3.90;;;1.40;;
4096;SDS011;2062;50.694;7.246;2023-04-24T09:43:54;4.50;;;1.60;;
4096;SDS011;2062;50.694;7.246;2023-04-24T09:46:28;4.70;;;1.40;;
4096;SDS011;2062;50.694;7.246;2023-04-24T09:48:56;4.30;;;1.30;;
4096;SDS011;2062;50.694;7.246;2023-04-24T09:51:33;4.57;;;1.60;;
4096;SDS011;2062;50.694;7.246;2023-04-24T09:54:01;4.67;;;1.50;;
4096;SDS011;2062;50.694;7.246;2023-04-24T09:56:31;4.90;;;1.55;;
4096;SDS011;2062;50.694;7.246;2023-04-24T09:59:04;4.45;;;1.48;;
4096;SDS011;2062;50.694;7.246;2023-04-24T10:01:31;5.20;;;2.17;;
4096;SDS011;2062;50.694;7.246;2023-04-24T10:03:59;5.13;;;2.05;;
4096;SDS011;2062;50.694;7.246;2023-04-24T10:06:29;5.07;;;1.60;;
4096;SDS011;2062;50.694;7.246;2023-04-24T10:08:58;4.93;;;1.83;;
4096;SDS011;2062;50.694;7.246;2023-04-24T10:11:26;5.93;;;1.73;;
4096;SDS011;2062;50.694;7.246;2023-04-24T10:13:54;4.82;;;1.80;;
4096;SDS011;2062;50.694;7.246;2023-04-24T10:16:22;5.25;;;2.05;;
4096;SDS011;2062;50.694;7.246;2023-04-24T10:18:52;4.40;;;1.70;;
4096;SDS011;2062;50.694;7.246;2023-04-24T10:21:20;5.22;;;1.80;;
4096;SDS011;2062;50.694;7.246;2023-04-24T10:23:47;5.75;;;1.77;;
4096;SDS011;2062;50.694;7.246;2023-04-24T10:26:15;5.97;;;1.75;;
4096;SDS011;2062;50.694;7.246;2023-04-24T10:28:45;5.35;;;2.08;;
4096;SDS011;2062;50.694;7.246;2023-04-24T10:31:14;6.30;;;1.70;;
4096;SDS011;2062;50.694;7.246;2023-04-24T10:33:41;5.32;;;1.90;;
4096;SDS011;2062;50.694;7.246;2023-04-24T10:36:09;5.40;;;1.70;;
4096;SDS011;2062;50.694;7.246;2023-04-24T10:38:38;7.90;;;1.80;;
4096;SDS011;2062;50.694;7.246;2023-04-24T10:41:07;8.30;;;2.53;;
4096;SDS011;2062;50.694;7.246;2023-04-24T10:43:40;5.47;;;2.10;;
4096;SDS011;2062;50.694;7.246;2023-04-24T10:46:08;6.82;;;2.20;;
4096;SDS011;2062;50.694;7.246;2023-04-24T10:48:37;5.88;;;2.17;;
4096;SDS011;2062;50.694;7.246;2023-04-24T10:51:10;4.93;;;2.05;;
4096;SDS011;2062;50.694;7.246;2023-04-24T10:53:39;7.50;;;2.00;;
4096;SDS011;2062;50.694;7.246;2023-04-24T10:56:06;6.33;;;1.80;;
4096;SDS011;2062;50.694;7.246;2023-04-24T10:58:38;9.13;;;2.00;;
4096;SDS011;2062;50.694;7.246;2023-04-24T11:01:06;5.65;;;2.00;;
4096;SDS011;2062;50.694;7.246;2023-04-24T11:03:34;5.22;;;2.13;;
4096;SDS011;2062;50.694;7.246;2023-04-24T11:06:03;8.70;;;2.42;;
4096;SDS011;2062;50.694;7.246;2023-04-24T11:08:37;6.03;;;2.13;;
4096;SDS011;2062;50.694;7.246;2023-04-24T11:11:08;7.03;;;2.08;;
4096;SDS011;2062;50.694;7.246;2023-04-24T11:16:33;6.30;;;2.50;;
4096;SDS011;2062;50.694;7.246;2023-04-24T11:19:02;7.85;;;3.00;;
4096;SDS011;2062;50.694;7.246;2023-04-24T11:21:32;8.10;;;3.20;;
4096;SDS011;2062;50.694;7.246;2023-04-24T11:24:21;8.55;;;3.58;;
4096;SDS011;2062;50.694;7.246;2023-04-24T11:26:51;8.82;;;3.50;;
4096;SDS011;2062;50.694;7.246;2023-04-24T11:29:19;10.20;;;3.70;;
4096;SDS011;2062;50.694;7.246;2023-04-24T11:31:46;10.32;;;3.50;;
4096;SDS011;2062;50.694;7.246;2023-04-24T11:34:16;9.97;;;3.77;;
4096;SDS011;2062;50.694;7.246;2023-04-24T11:36:45;10.55;;;4.00;;
4096;SDS011;2062;50.694;7.246;2023-04-24T11:39:13;10.50;;;4.07;;
4096;SDS011;2062;50.694;7.246;2023-04-24T11:41:41;7.75;;;3.92;;
4096;SDS011;2062;50.694;7.246;2023-04-24T11:44:08;8.70;;;3.72;;
4096;SDS011;2062;50.694;7.246;2023-04-24T11:46:36;9.93;;;4.03;;
4096;SDS011;2062;50.694;7.246;2023-04-24T11:49:05;9.05;;;3.75;;
4096;SDS011;2062;50.694;7.246;2023-04-24T11:51:32;10.68;;;3.95;;
4096;SDS011;2062;50.694;7.246;2023-04-24T11:54:01;9.55;;;3.60;;
4096;SDS011;2062;50.694;7.246;2023-04-24T11:56:28;11.07;;;4.00;;
4096;SDS011;2062;50.694;7.246;2023-04-24T11:58:55;9.37;;;3.73;;
4096;SDS011;2062;50.694;7.246;2023-04-24T12:01:22;9.45;;;3.72;;
4096;SDS011;2062;50.694;7.246;2023-04-24T12:03:49;7.85;;;3.45;;
4096;SDS011;2062;50.694;7.246;2023-04-24T12:06:17;9.57;;;3.60;;
4096;SDS011;2062;50.694;7.246;2023-04-24T12:08:45;8.35;;;3.70;;
4096;SDS011;2062;50.694;7.246;2023-04-24T12:11:14;7.53;;;3.30;;
4096;SDS011;2062;50.694;7.246;2023-04-24T12:13:43;9.02;;;3.33;;
4096;SDS011;2062;50.694;7.246;2023-04-24T12:16:11;10.70;;;3.00;;
4096;SDS011;2062;50.694;7.246;2023-04-24T12:18:41;8.70;;;3.40;;
4096;SDS011;2062;50.694;7.246;2023-04-24T12:21:17;10.55;;;3.70;;
4096;SDS011;2062;50.694;7.246;2023-04-24T12:23:45;10.17;;;3.17;;
4096;SDS011;2062;50.694;7.246;2023-04-24T12:26:14;10.18;;;3.50;;
4096;SDS011;2062;50.694;7.246;2023-04-24T12:28:45;9.15;;;3.58;;
4096;SDS011;2062;50.694;7.246;2023-04-24T12:31:14;8.52;;;3.45;;
4096;SDS011;2062;50.694;7.246;2023-04-24T12:33:41;9.93;;;3.80;;
4096;SDS011;2062;50.694;7.246;2023-04-24T12:36:09;10.70;;;3.43;;
4096;SDS011;2062;50.694;7.246;2023-04-24T12:38:38;10.00;;;3.58;;
4096;SDS011;2062;50.694;7.246;2023-04-24T12:41:06;11.73;;;3.80;;
4096;SDS011;2062;50.694;7.246;2023-04-24T12:43:35;9.20;;;3.45;;
4096;SDS011;2062;50.694;7.246;2023-04-24T12:46:03;9.68;;;3.25;;
4096;SDS011;2062;50.694;7.246;2023-04-24T12:48:31;8.30;;;3.27;;
4096;SDS011;2062;50.694;7.246;2023-04-24T12:50:58;8.98;;;3.28;;
4096;SDS011;2062;50.694;7.246;2023-04-24T12:53:27;8.82;;;4.00;;
4096;SDS011;2062;50.694;7.246;2023-04-24T12:55:56;11.25;;;3.38;;
4096;SDS011;2062;50.694;7.246;2023-04-24T12:58:23;7.85;;;3.58;;
4096;SDS011;2062;50.694;7.246;2023-04-24T13:00:51;11.33;;;3.97;;
4096;SDS011;2062;50.694;7.246;2023-04-24T13:03:19;8.55;;;3.88;;
4096;SDS011;2062;50.694;7.246;2023-04-24T13:05:47;8.45;;;4.00;;
4096;SDS011;2062;50.694;7.246;2023-04-24T13:08:15;9.60;;;4.18;;
4096;SDS011;2062;50.694;7.246;2023-04-24T13:10:42;10.85;;;4.55;;
4096;SDS011;2062;50.694;7.246;2023-04-24T13:13:09;12.57;;;4.10;;
4096;SDS011;2062;50.694;7.246;2023-04-24T13:15:36;9.50;;;4.20;;
4096;SDS011;2062;50.694;7.246;2023-04-24T13:18:04;10.68;;;4.95;;
4096;SDS011;2062;50.694;7.246;2023-04-24T13:20:31;10.63;;;4.18;;
4096;SDS011;2062;50.694;7.246;2023-04-24T13:22:58;11.20;;;4.47;;
4096;SDS011;2062;50.694;7.246;2023-04-24T13:25:25;9.07;;;4.03;;
4096;SDS011;2062;50.694;7.246;2023-04-24T13:27:51;10.45;;;4.30;;
4096;SDS011;2062;50.694;7.246;2023-04-24T13:30:18;10.48;;;4.28;;
4096;SDS011;2062;50.694;7.246;2023-04-24T13:32:45;12.10;;;3.83;;
4096;SDS011;2062;50.694;7.246;2023-04-24T13:35:14;10.07;;;4.00;;
4096;SDS011;2062;50.694;7.246;2023-04-24T13:37:41;11.80;;;3.57;;
4096;SDS011;2062;50.694;7.246;2023-04-24T13:40:08;9.05;;;3.72;;
4096;SDS011;2062;50.694;7.246;2023-04-24T13:42:35;10.70;;;3.80;;
4096;SDS011;2062;50.694;7.246;2023-04-24T13:45:03;8.80;;;3.20;;
4096;SDS011;2062;50.694;7.246;2023-04-24T13:47:30;9.50;;;3.47;;
4096;SDS011;2062;50.694;7.246;2023-04-24T13:49:57;7.47;;;3.23;;
4096;SDS011;2062;50.694;7.246;2023-04-24T13:52:25;9.68;;;3.65;;
4096;SDS011;2062;50.694;7.246;2023-04-24T13:54:52;9.60;;;3.30;;
4096;SDS011;2062;50.694;7.246;2023-04-24T13:57:19;7.13;;;3.35;;
4096;SDS011;2062;50.694;7.246;2023-04-24T13:59:46;10.98;;;3.67;;
4096;SDS011;2062;50.694;7.246;2023-04-24T14:02:13;10.20;;;3.50;;
4096;SDS011;2062;50.694;7.246;2023-04-24T14:04:39;8.00;;;3.45;;
4096;SDS011;2062;50.694;7.246;2023-04-24T14:07:06;6.32;;;3.20;;
4096;SDS011;2062;50.694;7.246;2023-04-24T14:09:35;8.65;;;3.53;;
4096;SDS011;2062;50.694;7.246;2023-04-24T14:12:02;8.10;;;3.00;;
4096;SDS011;2062;50.694;7.246;2023-04-24T14:14:29;7.70;;;2.73;;
4096;SDS011;2062;50.694;7.246;2023-04-24T14:16:56;8.32;;;3.13;;
4096;SDS011;2062;50.694;7.246;2023-04-24T14:19:23;6.75;;;2.90;;
4096;SDS011;2062;50.694;7.246;2023-04-24T14:21:50;9.77;;;3.10;;
4096;SDS011;2062;50.694;7.246;2023-04-24T14:24:17;9.57;;;3.15;;
4096;SDS011;2062;50.694;7.246;2023-04-24T14:26:45;7.83;;;3.00;;
4096;SDS011;2062;50.694;7.246;2023-04-24T14:29:12;8.02;;;3.30;;
4096;SDS011;2062;50.694;7.246;2023-04-24T14:31:39;6.95;;;3.35;;
4096;SDS011;2062;50.694;7.246;2023-04-24T14:34:06;10.38;;;3.40;;
4096;SDS011;2062;50.694;7.246;2023-04-24T14:36:33;9.55;;;4.00;;
4096;SDS011;2062;50.694;7.246;2023-04-24T14:39:00;9.80;;;3.43;;
4096;SDS011;2062;50.694;7.246;2023-04-24T14:41:30;8.40;;;4.05;;
4096;SDS011;2062;50.694;7.246;2023-04-24T14:44:00;9.07;;;3.95;;
4096;SDS011;2062;50.694;7.246;2023-04-24T14:46:27;8.35;;;3.80;;
4096;SDS011;2062;50.694;7.246;2023-04-24T14:48:53;10.00;;;4.22;;
4096;SDS011;2062;50.694;7.246;2023-04-24T14:51:20;8.87;;;4.00;;
4096;SDS011;2062;50.694;7.246;2023-04-24T14:53:47;9.65;;;4.10;;
4096;SDS011;2062;50.694;7.246;2023-04-24T14:56:14;9.73;;;3.67;;
4096;SDS011;2062;50.694;7.246;2023-04-24T14:58:41;12.65;;;3.90;;
4096;SDS011;2062;50.694;7.246;2023-04-24T15:01:09;11.70;;;4.35;;
4096;SDS011;2062;50.694;7.246;2023-04-24T15:03:37;12.57;;;3.70;;
4096;SDS011;2062;50.694;7.246;2023-04-24T15:06:04;9.57;;;3.95;;
4096;SDS011;2062;50.694;7.246;2023-04-24T15:08:31;12.02;;;3.95;;
4096;SDS011;2062;50.694;7.246;2023-04-24T15:10:59;13.23;;;4.22;;
4096;SDS011;2062;50.694;7.246;2023-04-24T15:13:25;9.98;;;3.80;;
4096;SDS011;2062;50.694;7.246;2023-04-24T15:15:52;10.53;;;3.83;;
4096;SDS011;2062;50.694;7.246;2023-04-24T15:18:20;9.95;;;3.67;;
4096;SDS011;2062;50.694;7.246;2023-04-24T15:20:47;8.63;;;3.47;;